createdAt,value
2018-02-21T00:01:38.540Z,-0.40
2018-02-21T00:05:41.088Z,-0.30
2018-02-21T00:09:44.413Z,-0.20
2018-02-21T00:13:46.942Z,-0.20
2018-02-21T00:17:49.511Z,-0.20
2018-02-21T00:21:52.027Z,-0.20
2018-02-21T00:25:54.576Z,-0.20
2018-02-21T00:29:57.141Z,-0.10
2018-02-21T00:33:59.677Z,-0.10
2018-02-21T00:38:02.277Z,0.00
2018-02-21T00:42:04.954Z,0.10
2018-02-21T00:46:07.485Z,0.10
2018-02-21T00:50:10.033Z,0.20
2018-02-21T00:54:12.665Z,0.30
2018-02-21T00:58:15.179Z,0.40
2018-02-21T01:02:17.719Z,0.60
2018-02-21T01:06:21.001Z,0.70
2018-02-21T01:10:23.554Z,0.70
2018-02-21T01:14:26.068Z,0.70
2018-02-21T01:18:28.644Z,0.70
2018-02-21T01:22:31.173Z,0.70
2018-02-21T01:26:33.709Z,0.60
2018-02-21T01:30:36.337Z,0.60
2018-02-21T01:34:39.638Z,0.60
2018-02-21T01:38:42.933Z,0.50
2018-02-21T01:42:46.242Z,0.50
2018-02-21T01:46:49.513Z,0.50
2018-02-21T01:50:52.730Z,0.40
2018-02-21T01:54:55.240Z,0.40
2018-02-21T01:58:58.554Z,0.30
2018-02-21T02:03:01.065Z,0.30
2018-02-21T02:07:03.600Z,0.20
2018-02-21T02:11:06.128Z,0.10
2018-02-21T02:15:08.672Z,0.00
2018-02-21T02:19:12.652Z,0.00
2018-02-21T02:23:15.191Z,0.00
2018-02-21T02:27:18.465Z,-0.10
2018-02-21T02:31:21.009Z,-0.10
2018-02-21T02:35:23.524Z,-0.10
2018-02-21T02:39:37.808Z,-0.10
2018-02-21T02:43:40.353Z,-0.10
2018-02-21T02:47:42.894Z,-0.10
2018-02-21T02:51:46.198Z,-0.10
2018-02-21T02:55:49.487Z,-0.20
2018-02-21T02:59:52.018Z,-0.20
2018-02-21T03:03:54.653Z,-0.10
2018-02-21T03:07:57.168Z,-0.10
2018-02-21T03:12:00.473Z,0.00
2018-02-21T03:16:03.771Z,0.00
2018-02-21T03:20:07.047Z,0.00
2018-02-21T03:24:09.597Z,0.00
2018-02-21T03:28:12.121Z,-0.10
2018-02-21T03:32:20.318Z,0.00
2018-02-21T03:36:22.824Z,0.00
2018-02-21T03:40:25.347Z,0.10
2018-02-21T03:44:28.640Z,0.20
2018-02-21T03:48:31.946Z,0.20
2018-02-21T03:52:35.229Z,0.20
2018-02-21T03:56:37.767Z,0.20
2018-02-21T04:00:40.284Z,0.30
2018-02-21T04:04:42.826Z,0.30
2018-02-21T04:08:45.329Z,0.30
2018-02-21T04:12:47.865Z,0.30
2018-02-21T04:16:50.372Z,0.30
2018-02-21T04:20:53.665Z,0.30
2018-02-21T04:24:56.944Z,0.30
2018-02-21T04:28:59.478Z,0.30
2018-02-21T04:33:02.007Z,0.30
2018-02-21T04:37:04.531Z,0.20
2018-02-21T04:41:07.837Z,0.20
2018-02-21T04:45:11.153Z,0.10
2018-02-21T04:49:13.670Z,0.10
2018-02-21T04:53:17.032Z,0.00
2018-02-21T04:57:31.069Z,0.00
2018-02-21T05:01:33.596Z,0.00
2018-02-21T05:05:36.099Z,0.00
2018-02-21T05:09:38.740Z,0.00
2018-02-21T05:13:42.021Z,0.00
2018-02-21T05:17:44.567Z,0.00
2018-02-21T05:21:47.080Z,0.10
2018-02-21T05:25:49.645Z,0.10
2018-02-21T05:29:52.149Z,0.10
2018-02-21T05:33:54.705Z,0.10
2018-02-21T05:37:57.250Z,0.10
2018-02-21T05:41:59.800Z,0.20
2018-02-21T05:46:02.375Z,0.20
2018-02-21T05:50:04.888Z,0.20
2018-02-21T05:54:07.418Z,0.20
2018-02-21T05:58:10.702Z,0.20
2018-02-21T06:02:13.242Z,0.20
2018-02-21T06:06:15.748Z,0.10
2018-02-21T06:10:18.286Z,0.10
2018-02-21T06:14:20.789Z,0.10
2018-02-21T06:18:23.432Z,0.00
2018-02-21T06:22:25.912Z,-0.10
2018-02-21T06:26:28.452Z,-0.10
2018-02-21T06:30:30.986Z,-0.20
2018-02-21T06:34:33.525Z,-0.20
2018-02-21T06:38:36.032Z,-0.20
2018-02-21T06:42:38.564Z,-0.30
2018-02-21T06:46:41.858Z,-0.30
2018-02-21T06:50:45.222Z,-0.20
2018-02-21T06:54:47.744Z,-0.20
2018-02-21T06:58:50.263Z,0.00
2018-02-21T07:02:52.848Z,0.20
2018-02-21T07:06:55.379Z,0.30
2018-02-21T07:10:57.911Z,0.50
2018-02-21T07:15:00.452Z,0.70
2018-02-21T07:19:02.985Z,0.90
2018-02-21T07:23:05.528Z,1.00
2018-02-21T07:27:08.044Z,1.20
2018-02-21T07:31:11.341Z,1.20
2018-02-21T07:35:14.658Z,1.20
2018-02-21T07:39:17.973Z,1.30
2018-02-21T07:43:20.479Z,1.20
2018-02-21T07:47:23.235Z,1.20
2018-02-21T07:51:26.537Z,1.40
2018-02-21T07:55:29.843Z,1.50
2018-02-21T07:59:33.126Z,1.60
2018-02-21T08:03:35.669Z,1.60
2018-02-21T08:07:38.193Z,1.80
2018-02-21T08:11:40.723Z,1.90
2018-02-21T08:15:43.256Z,2.00
2018-02-21T08:19:45.780Z,2.00
2018-02-21T08:23:49.078Z,2.10
2018-02-21T08:27:52.388Z,2.30
2018-02-21T08:31:55.666Z,2.40
2018-02-21T08:35:58.221Z,2.50
2018-02-21T08:40:00.729Z,2.70
2018-02-21T08:44:03.268Z,2.90
2018-02-21T08:48:05.928Z,3.00
2018-02-21T08:52:10.317Z,3.10
2018-02-21T08:56:12.874Z,3.10
2018-02-21T09:00:15.416Z,3.10
2018-02-21T09:04:17.939Z,3.10
2018-02-21T09:08:20.488Z,3.10
2018-02-21T09:12:23.777Z,3.10
2018-02-21T09:16:26.321Z,3.10
2018-02-21T09:20:28.842Z,3.20
2018-02-21T09:24:38.749Z,3.20
2018-02-21T09:28:41.309Z,3.30
2018-02-21T09:32:55.925Z,3.30
2018-02-21T09:36:58.498Z,3.40
2018-02-21T09:41:01.024Z,3.40
2018-02-21T09:45:03.589Z,3.60
2018-02-21T09:53:15.997Z,5.00
2018-02-21T09:57:19.282Z,5.80
2018-02-21T10:01:28.014Z,5.70
2018-02-21T10:05:30.535Z,6.60
2018-02-21T10:09:36.073Z,7.40
2018-02-21T10:13:49.969Z,7.70
2018-02-21T10:17:52.944Z,7.70
2018-02-21T10:21:55.516Z,7.90
2018-02-21T10:25:58.804Z,7.70
2018-02-21T10:30:02.139Z,7.60
2018-02-21T10:34:04.690Z,7.60
2018-02-21T10:38:27.877Z,7.40
2018-02-21T10:42:30.446Z,7.00
2018-02-21T10:50:49.489Z,6.50
2018-02-21T10:54:52.037Z,6.50
2018-02-21T10:58:55.359Z,6.80
2018-02-21T11:02:58.676Z,6.80
2018-02-21T11:07:12.545Z,6.80
2018-02-21T11:11:23.120Z,6.90
2018-02-21T11:15:25.695Z,6.80
2018-02-21T11:19:28.951Z,6.90
2018-02-21T11:23:32.265Z,6.70
2018-02-21T11:27:35.648Z,6.60
2018-02-21T11:31:38.227Z,6.60
2018-02-21T11:39:49.702Z,6.50
2018-02-21T11:43:52.261Z,6.10
2018-02-21T11:47:54.969Z,6.20
2018-02-21T11:51:58.277Z,6.10
2018-02-21T11:56:01.549Z,6.10
2018-02-21T12:00:04.095Z,6.10
2018-02-21T12:04:07.759Z,5.90
2018-02-21T12:08:10.290Z,5.60
2018-02-21T12:12:12.815Z,5.50
2018-02-21T12:16:15.372Z,5.40
2018-02-21T12:20:17.883Z,5.20
2018-02-21T12:24:20.410Z,5.10
2018-02-21T12:28:23.761Z,4.90
2018-02-21T12:32:26.265Z,4.90
2018-02-21T12:36:29.282Z,5.10
2018-02-21T12:40:38.386Z,5.30
2018-02-21T12:44:40.892Z,5.30
2018-02-21T12:48:43.426Z,5.40
2018-02-21T12:52:45.944Z,5.30
2018-02-21T12:56:48.496Z,5.20
2018-02-21T13:00:51.168Z,5.30
2018-02-21T13:04:54.473Z,5.10
2018-02-21T13:08:57.737Z,5.10
2018-02-21T13:13:00.283Z,5.10
2018-02-21T13:17:02.797Z,5.10
2018-02-21T13:21:05.466Z,5.10
2018-02-21T13:25:07.978Z,5.10
2018-02-21T13:29:10.574Z,5.10
2018-02-21T13:33:13.119Z,5.00
2018-02-21T13:37:15.659Z,4.90
2018-02-21T13:41:18.202Z,4.90
2018-02-21T13:45:20.736Z,4.80
2018-02-21T13:49:24.048Z,4.70
2018-02-21T13:53:27.349Z,4.70
2018-02-21T13:57:30.628Z,4.80
2018-02-21T14:01:33.167Z,4.70
2018-02-21T14:05:35.675Z,4.80
2018-02-21T14:09:38.204Z,4.90
2018-02-21T14:13:40.730Z,4.80
2018-02-21T14:17:43.266Z,4.80
2018-02-21T14:21:45.814Z,4.80
2018-02-21T14:25:48.332Z,4.60
2018-02-21T14:29:51.000Z,4.50
2018-02-21T14:33:53.606Z,4.50
2018-02-21T14:37:56.131Z,4.50
2018-02-21T14:41:58.657Z,4.40
2018-02-21T14:46:01.212Z,4.40
2018-02-21T14:50:03.729Z,4.40
2018-02-21T14:54:06.271Z,4.40
2018-02-21T14:58:09.571Z,4.40
2018-02-21T15:02:12.177Z,4.40
2018-02-21T15:06:14.742Z,4.20
2018-02-21T15:10:18.031Z,4.20
2018-02-21T15:14:20.573Z,4.10
2018-02-21T15:18:23.090Z,4.20
2018-02-21T15:22:25.653Z,4.10
2018-02-21T16:30:26.910Z,6.70
2018-02-21T16:36:25.822Z,3.70
2018-02-21T16:40:29.162Z,3.60
2018-02-21T16:44:31.768Z,3.60
2018-02-21T16:48:36.101Z,3.50
2018-02-21T16:52:41.078Z,3.40
2018-02-21T16:56:44.442Z,3.20
2018-02-21T17:00:47.049Z,3.20
2018-02-21T17:04:49.647Z,3.00
2018-02-21T17:08:52.252Z,2.90
2018-02-21T17:12:56.566Z,2.60
2018-02-21T17:16:59.241Z,2.60
2018-02-21T17:21:01.846Z,2.40
2018-02-21T17:25:05.202Z,2.20
2018-02-21T17:29:07.760Z,2.20
2018-02-21T17:33:10.359Z,2.10
2018-02-21T17:37:12.928Z,2.00
2018-02-21T17:41:22.040Z,1.80
2018-02-21T17:45:24.626Z,1.80
2018-02-21T17:49:27.220Z,1.70
2018-02-21T17:53:29.808Z,1.50
2018-02-21T17:57:32.403Z,1.40
2018-02-21T18:01:35.008Z,1.30
2018-02-21T18:05:37.591Z,1.20
2018-02-21T18:09:40.196Z,1.20
2018-02-21T18:13:43.752Z,1.10
2018-02-21T18:17:46.366Z,1.10
2018-02-21T18:21:50.854Z,1.00
2018-02-21T18:25:53.494Z,1.00
2018-02-21T18:29:56.946Z,1.10
2018-02-21T18:33:59.508Z,1.10
2018-02-21T18:38:02.102Z,1.10
2018-02-21T18:42:04.683Z,1.10
2018-02-21T18:46:07.307Z,1.10
2018-02-21T18:50:09.877Z,1.20
2018-02-21T18:54:12.481Z,1.30
2018-02-21T18:58:15.068Z,1.30
2018-02-21T19:02:17.657Z,1.30
2018-02-21T19:06:20.232Z,1.40
2018-02-21T19:10:22.814Z,1.40
2018-02-21T19:14:25.434Z,1.40
2018-02-21T19:18:28.041Z,1.40
2018-02-21T19:22:30.615Z,1.50
2018-02-21T19:26:33.284Z,1.70
2018-02-21T19:30:35.847Z,1.80
2018-02-21T19:34:38.456Z,1.80
2018-02-21T19:38:41.058Z,1.80
2018-02-21T19:42:44.763Z,1.90
2018-02-21T19:46:47.360Z,1.80
2018-02-21T19:50:49.978Z,1.80
2018-02-21T19:54:53.304Z,1.80
2018-02-21T19:58:56.079Z,1.80
2018-02-21T20:02:58.645Z,1.80
2018-02-21T20:07:01.594Z,1.80
2018-02-21T20:11:04.171Z,1.90
2018-02-21T20:15:06.759Z,2.10
2018-02-21T20:19:09.326Z,2.20
2018-02-21T20:23:11.942Z,2.20
2018-02-21T20:27:14.566Z,2.30
2018-02-21T20:31:17.182Z,2.30
2018-02-21T20:35:20.517Z,2.30
2018-02-21T20:39:23.103Z,2.30
2018-02-21T20:43:25.669Z,2.30
2018-02-21T20:47:29.024Z,2.40
2018-02-21T20:51:31.602Z,2.40
2018-02-21T20:55:34.217Z,2.40
2018-02-21T20:59:36.818Z,2.50
2018-02-21T21:03:40.192Z,2.60
2018-02-21T21:07:42.764Z,2.60
2018-02-21T21:11:45.363Z,2.60
2018-02-21T21:15:47.960Z,2.60
2018-02-21T21:19:50.611Z,2.60
2018-02-21T21:23:53.214Z,2.60
2018-02-21T21:27:55.852Z,2.60
2018-02-21T21:31:59.199Z,2.60
2018-02-21T23:03:26.540Z,2.10
2018-02-21T23:07:29.894Z,2.00
2018-02-21T23:11:32.487Z,2.00
2018-02-21T23:15:35.123Z,2.00
2018-02-21T23:19:37.766Z,2.00
2018-02-21T23:23:40.364Z,2.00
2018-02-21T23:27:43.317Z,2.00
2018-02-21T23:31:46.024Z,2.00
2018-02-21T23:35:48.677Z,2.00
2018-02-21T23:39:52.045Z,2.00
2018-02-21T23:43:54.705Z,2.00
2018-02-21T23:47:57.269Z,2.10
2018-02-21T23:51:59.936Z,2.00
2018-02-21T23:56:03.332Z,2.00
